Decoded Metar for ZGHA (CHANGCHA in CHINA) (IATA:CSX) | Meteo·Mobile Aviation Weather
aviador You're here:

ZGHA Decoded Metar

CHANGCHA in CHINA
Report Time2019-07-24 04:00:00
UTC Time2019-07-24 04:26:43
Flight Rules vfr VFR
Wind210° at 8 kt
W.Decomp.*RWY 18: 6.7 kt HW 4.4 kt RCW
Visibility9999 m
Phenomena:N/A
Clouds:Scattered 040 Hf
Expected CloudBase > 4,800 ft AGL from Temp-Dew spread
CeilingNone
Temp35°C (ISA +20)
Dew Point23°C (50% RH)
Heat Index40.7°C
QNH1005 hPa
Density Alt3,173 ft
Elevation217 ft
Report Wrong Elevation
Raw Report
ZGHA 240400Z 21004MPS 180V260 9999 SCT040 35/23 Q1005 NOSIG=

Extra information for ZGHA:More info

Metar Taf Metar & Taf Last 4 Metars F.Rules Stats Wind Profile Meteogram Temp Stats Airport Information Weather charts Add Link Nearby VenuesMetar ALERT Operation Metar Decoded Social comments